Wetterdaten: Woche 19.01.09 - 25.01.09 (KW4)
Datum Zeit Temperatur Luftfeuchte Luftdruck Niederschlag Wind Richtung Sonnenschein Solar Taupunkt Windchill Windben
19.01.2009 00:00 4.2 C 83 % 1013.3 hPa 0.0 l/m 2.9 km/h (1 Bft) S-SW 0.00 h 0 W/m 1.5 C 3.9 C 5.5 km/h (1 Bft)
19.01.2009 01:00 3.3 C 85 % 1013.0 hPa 0.0 l/m 1.5 km/h (1 Bft) SW 0.00 h 0 W/m 1.1 C 3.3 C 3.3 km/h (1 Bft)
19.01.2009 02:00 2.7 C 89 % 1012.2 hPa 0.0 l/m 3.7 km/h (1 Bft) S-SO 0.00 h 0 W/m 1.0 C 2.0 C 6.0 km/h (2 Bft)
19.01.2009 03:00 2.5 C 88 % 1011.2 hPa 0.0 l/m 2.0 km/h (1 Bft) S-SO 0.00 h 0 W/m 0.7 C 2.4 C 3.5 km/h (1 Bft)
19.01.2009 04:00 1.6 C 90 % 1009.2 hPa 0.0 l/m 0.6 km/h (0 Bft) S-SO 0.00 h 0 W/m 0.1 C 1.6 C 1.2 km/h (1 Bft)
19.01.2009 05:00 0.7 C 92 % 1007.9 hPa 0.0 l/m 0.6 km/h (0 Bft) O-SO 0.00 h 0 W/m -0.5 C 0.7 C 1.1 km/h (1 Bft)
19.01.2009 06:00 0.4 C 93 % 1006.9 hPa 0.0 l/m 0.1 km/h (0 Bft) O-SO 0.00 h 0 W/m -0.6 C 0.4 C 0.2 km/h (0 Bft)
19.01.2009 07:00 0.4 C 95 % 1005.9 hPa 0.0 l/m 0.2 km/h (0 Bft) O-SO 0.00 h 0 W/m -0.3 C 0.4 C 0.8 km/h (0 Bft)
19.01.2009 08:00 0.5 C 96 % 1005.1 hPa 0.6 l/m 0.1 km/h (0 Bft) O-SO 0.00 h 6 W/m -0.0 C 0.5 C 0.4 km/h (0 Bft)
19.01.2009 09:00 0.8 C 97 % 1004.0 hPa 1.2 l/m 0.3 km/h (0 Bft) O-SO 0.00 h 11 W/m 0.4 C 0.8 C 0.8 km/h (0 Bft)
19.01.2009 10:00 1.0 C 97 % 1002.5 hPa 0.6 l/m 0.7 km/h (0 Bft) SO 0.00 h 18 W/m 0.5 C 0.8 C 1.5 km/h (1 Bft)
19.01.2009 11:00 1.8 C 98 % 1001.5 hPa 0.6 l/m 3.7 km/h (1 Bft) O-SO 0.00 h 35 W/m 1.5 C 1.0 C 6.0 km/h (2 Bft)
19.01.2009 12:00 1.8 C 98 % 1000.4 hPa 0.6 l/m 0.5 km/h (0 Bft) O-NO 0.00 h 51 W/m 1.5 C 1.8 C 1.7 km/h (1 Bft)
19.01.2009 13:00 2.7 C 99 % 999.0 hPa 0.0 l/m 2.6 km/h (1 Bft) N 0.00 h 82 W/m 2.6 C 2.3 C 4.8 km/h (1 Bft)
19.01.2009 14:00 4.7 C 99 % 998.1 hPa 0.0 l/m 11.0 km/h (2 Bft) S-SO 0.00 h 38 W/m 4.6 C 2.2 C 19.1 km/h (3 Bft)
19.01.2009 15:00 6.0 C 94 % 997.7 hPa 0.0 l/m 11.0 km/h (2 Bft) S-SO 0.00 h 25 W/m 5.2 C 3.7 C 19.9 km/h (4 Bft)
19.01.2009 16:00 6.1 C 91 % 997.8 hPa 0.2 l/m 8.6 km/h (2 Bft) S 0.00 h 12 W/m 4.8 C 4.5 C 15.9 km/h (3 Bft)
19.01.2009 17:00 6.0 C 92 % 997.7 hPa 1.2 l/m 8.7 km/h (2 Bft) S-SO 0.00 h 0 W/m 4.7 C 4.2 C 16.1 km/h (3 Bft)
19.01.2009 18:00 6.2 C 92 % 998.2 hPa 0.2 l/m 7.9 km/h (2 Bft) S-SO 0.00 h 0 W/m 4.9 C 4.7 C 14.0 km/h (3 Bft)
19.01.2009 19:00 6.0 C 91 % 998.2 hPa 0.2 l/m 6.9 km/h (2 Bft) S-SO 0.00 h 0 W/m 4.7 C 4.7 C 12.9 km/h (3 Bft)
19.01.2009 20:00 5.7 C 93 % 998.0 hPa 0.8 l/m 5.4 km/h (1 Bft) S-SO 0.00 h 0 W/m 4.7 C 4.6 C 9.8 km/h (2 Bft)
19.01.2009 21:00 5.5 C 95 % 997.5 hPa 0.2 l/m 3.1 km/h (1 Bft) SO 0.00 h 0 W/m 4.7 C 5.2 C 5.3 km/h (1 Bft)
19.01.2009 22:00 5.6 C 95 % 997.0 hPa 0.8 l/m 2.4 km/h (1 Bft) S-SO 0.00 h 0 W/m 4.9 C 5.4 C 4.2 km/h (1 Bft)
19.01.2009 23:00 5.5 C 95 % 996.8 hPa 2.2 l/m 6.5 km/h (2 Bft) S-SO 0.00 h 0 W/m 4.7 C 4.2 C 11.0 km/h (2 Bft)
20.01.2009 00:00 5.3 C 96 % 996.8 hPa 1.4 l/m 6.8 km/h (2 Bft) S 0.00 h 0 W/m 4.7 C 3.9 C 12.2 km/h (2 Bft)
20.01.2009 01:00 5.1 C 95 % 997.2 hPa 0.8 l/m 7.3 km/h (2 Bft) W-SW 0.00 h 0 W/m 4.4 C 3.7 C 11.6 km/h (2 Bft)
20.01.2009 02:00 4.5 C 94 % 997.9 hPa 0.4 l/m 4.3 km/h (1 Bft) S-SW 0.00 h 0 W/m 3.6 C 4.0 C 7.1 km/h (2 Bft)
20.01.2009 03:00 4.3 C 94 % 998.4 hPa 0.2 l/m 7.9 km/h (2 Bft) W-SW 0.00 h 0 W/m 3.4 C 2.7 C 12.5 km/h (3 Bft)
20.01.2009 04:00 4.1 C 87 % 998.3 hPa 0.0 l/m 5.9 km/h (2 Bft) S-SO 0.00 h 0 W/m 2.2 C 3.0 C 10.2 km/h (2 Bft)
20.01.2009 05:00 3.7 C 90 % 998.1 hPa 0.0 l/m 3.9 km/h (1 Bft) S 0.00 h 0 W/m 2.2 C 3.1 C 7.0 km/h (2 Bft)
20.01.2009 06:00 3.3 C 93 % 998.5 hPa 0.4 l/m 3.4 km/h (1 Bft) S-SO 0.00 h 0 W/m 2.2 C 2.9 C 6.2 km/h (2 Bft)
20.01.2009 07:00 3.1 C 94 % 998.8 hPa 0.6 l/m 3.6 km/h (1 Bft) S-SO 0.00 h 0 W/m 2.2 C 2.5 C 5.8 km/h (2 Bft)
20.01.2009 08:00 2.4 C 94 % 999.6 hPa 0.0 l/m 3.2 km/h (1 Bft) SO 0.00 h 8 W/m 1.5 C 2.1 C 4.9 km/h (1 Bft)
20.01.2009 09:00 2.3 C 94 % 999.9 hPa 0.0 l/m 0.7 km/h (0 Bft) O-SO 0.00 h 24 W/m 1.5 C 2.2 C 1.9 km/h (1 Bft)
20.01.2009 10:00 2.6 C 95 % 1000.3 hPa 0.0 l/m 0.2 km/h (0 Bft) O-SO 0.00 h 67 W/m 1.9 C 2.6 C 0.9 km/h (0 Bft)
20.01.2009 11:00 3.1 C 95 % 1000.5 hPa 0.0 l/m 0.3 km/h (0 Bft) O-SO 0.00 h 95 W/m 2.4 C 3.1 C 0.8 km/h (0 Bft)
20.01.2009 12:00 3.6 C 93 % 1000.0 hPa 0.0 l/m 1.0 km/h (0 Bft) O-SO 0.08 h 164 W/m 2.7 C 3.6 C 1.7 km/h (1 Bft)
20.01.2009 13:00 4.1 C 91 % 999.5 hPa 0.0 l/m 0.6 km/h (0 Bft) O-SO 0.00 h 135 W/m 2.8 C 4.1 C 1.8 km/h (1 Bft)
20.01.2009 14:00 4.1 C 88 % 999.5 hPa 0.0 l/m 3.0 km/h (1 Bft) O-SO 0.00 h 109 W/m 2.3 C 3.6 C 4.7 km/h (1 Bft)
20.01.2009 15:00 4.0 C 87 % 999.6 hPa 0.0 l/m 2.7 km/h (1 Bft) O-SO 0.00 h 63 W/m 2.0 C 3.7 C 4.6 km/h (1 Bft)
20.01.2009 16:00 3.8 C 87 % 1000.0 hPa 0.0 l/m 0.3 km/h (0 Bft) O 0.00 h 18 W/m 1.8 C 3.8 C 1.3 km/h (1 Bft)
20.01.2009 17:00 3.1 C 89 % 1000.1 hPa 0.0 l/m 0.3 km/h (0 Bft) O 0.00 h 0 W/m 1.4 C 3.1 C 0.9 km/h (0 Bft)
20.01.2009 18:00 2.6 C 90 % 1000.6 hPa 0.0 l/m 0.2 km/h (0 Bft) O 0.00 h 0 W/m 1.1 C 2.6 C 0.5 km/h (0 Bft)
20.01.2009 19:00 2.3 C 91 % 1001.5 hPa 0.0 l/m 0.2 km/h (0 Bft) O 0.00 h 0 W/m 1.0 C 2.3 C 0.7 km/h (0 Bft)
20.01.2009 20:00 2.1 C 93 % 1002.0 hPa 0.0 l/m 1.9 km/h (1 Bft) O 0.00 h 0 W/m 1.1 C 1.8 C 3.0 km/h (1 Bft)
20.01.2009 21:00 1.8 C 95 % 1002.7 hPa 0.2 l/m 0.7 km/h (0 Bft) O 0.00 h 0 W/m 1.0 C 1.8 C 1.1 km/h (1 Bft)
20.01.2009 22:00 1.5 C 96 % 1003.2 hPa 0.0 l/m 1.5 km/h (1 Bft) O 0.00 h 0 W/m 0.9 C 1.5 C 2.2 km/h (1 Bft)
20.01.2009 23:00 1.3 C 96 % 1003.5 hPa 0.2 l/m 0.1 km/h (0 Bft) O 0.00 h 0 W/m 0.8 C 1.3 C 0.6 km/h (0 Bft)
21.01.2009 00:00 1.2 C 97 % 1003.7 hPa 0.0 l/m 1.0 km/h (0 Bft) O 0.00 h 0 W/m 0.8 C 1.2 C 1.8 km/h (1 Bft)
21.01.2009 01:00 1.3 C 97 % 1004.0 hPa 0.0 l/m 1.4 km/h (1 Bft) O 0.00 h 0 W/m 0.9 C 1.3 C 2.6 km/h (1 Bft)
21.01.2009 02:00 1.2 C 98 % 1004.2 hPa 0.2 l/m 1.3 km/h (1 Bft) O 0.00 h 0 W/m 0.9 C 1.2 C 2.5 km/h (1 Bft)
21.01.2009 03:00 0.9 C 98 % 1004.4 hPa 0.0 l/m 0.8 km/h (0 Bft) O 0.00 h 0 W/m 0.7 C 0.9 C 1.6 km/h (1 Bft)
21.01.2009 04:00 0.9 C 98 % 1004.7 hPa 0.0 l/m 1.2 km/h (1 Bft) O 0.00 h 0 W/m 0.6 C 0.8 C 2.1 km/h (1 Bft)
21.01.2009 05:00 1.0 C 98 % 1004.9 hPa 0.0 l/m 1.2 km/h (1 Bft) O 0.00 h 0 W/m 0.7 C 1.0 C 2.2 km/h (1 Bft)
21.01.2009 06:00 1.0 C 98 % 1005.5 hPa 0.0 l/m 0.6 km/h (0 Bft) O 0.00 h 0 W/m 0.8 C 1.0 C 1.3 km/h (1 Bft)
21.01.2009 07:00 1.2 C 99 % 1006.3 hPa 0.0 l/m 1.1 km/h (1 Bft) O 0.00 h 0 W/m 1.0 C 1.2 C 2.2 km/h (1 Bft)
21.01.2009 08:00 1.2 C 99 % 1007.1 hPa 0.0 l/m 1.2 km/h (1 Bft) O 0.00 h 6 W/m 1.1 C 1.2 C 2.0 km/h (1 Bft)
21.01.2009 09:00 1.4 C 99 % 1007.8 hPa 0.0 l/m 0.9 km/h (0 Bft) O 0.00 h 26 W/m 1.2 C 1.3 C 2.1 km/h (1 Bft)
21.01.2009 10:00 1.9 C 99 % 1008.5 hPa 0.0 l/m 0.6 km/h (0 Bft) O 0.00 h 56 W/m 1.8 C 1.9 C 1.5 km/h (1 Bft)
21.01.2009 11:00 2.5 C 99 % 1009.0 hPa 0.0 l/m 0.2 km/h (0 Bft) O 0.00 h 76 W/m 2.3 C 2.5 C 1.1 km/h (1 Bft)
21.01.2009 12:00 2.9 C 96 % 1009.0 hPa 0.0 l/m 0.2 km/h (0 Bft) S 0.00 h 102 W/m 2.4 C 2.9 C 0.9 km/h (0 Bft)
21.01.2009 13:00 3.7 C 90 % 1008.7 hPa 0.0 l/m 0.1 km/h (0 Bft) S 0.35 h 184 W/m 2.2 C 3.7 C 0.7 km/h (0 Bft)
21.01.2009 14:00 4.2 C 85 % 1008.8 hPa 0.0 l/m 0.8 km/h (0 Bft) S 0.67 h 180 W/m 2.0 C 4.2 C 2.1 km/h (1 Bft)
21.01.2009 15:00 4.4 C 84 % 1009.0 hPa 0.0 l/m 0.9 km/h (0 Bft) S 0.38 h 108 W/m 1.9 C 4.4 C 2.0 km/h (1 Bft)
21.01.2009 16:00 4.1 C 85 % 1009.5 hPa 0.0 l/m 0.1 km/h (0 Bft) NW 0.00 h 30 W/m 1.9 C 4.1 C 0.5 km/h (0 Bft)
21.01.2009 17:00 3.2 C 87 % 1009.7 hPa 0.0 l/m 0.4 km/h (0 Bft) NW 0.00 h 5 W/m 1.2 C 3.2 C 1.0 km/h (0 Bft)
21.01.2009 18:00 1.7 C 90 % 1010.0 hPa 0.0 l/m 2.0 km/h (1 Bft) O-SO 0.00 h 0 W/m 0.3 C 1.3 C 3.0 km/h (1 Bft)
21.01.2009 19:00 0.7 C 93 % 1010.7 hPa 0.0 l/m 1.7 km/h (1 Bft) O-SO 0.00 h 0 W/m -0.3 C 0.4 C 2.7 km/h (1 Bft)
21.01.2009 20:00 0.2 C 94 % 1011.4 hPa 0.0 l/m 0.6 km/h (0 Bft) O-SO 0.00 h 0 W/m -0.5 C 0.2 C 1.1 km/h (0 Bft)
21.01.2009 21:00 0.4 C 96 % 1012.0 hPa 0.0 l/m 0.4 km/h (0 Bft) O-SO 0.00 h 0 W/m -0.2 C 0.4 C 0.7 km/h (0 Bft)
21.01.2009 22:00 0.7 C 96 % 1012.3 hPa 0.0 l/m 0.5 km/h (0 Bft) O-SO 0.00 h 0 W/m 0.2 C 0.7 C 1.1 km/h (1 Bft)
21.01.2009 23:00 0.7 C 97 % 1012.3 hPa 0.0 l/m 2.3 km/h (1 Bft) O-SO 0.00 h 0 W/m 0.2 C 0.6 C 3.8 km/h (1 Bft)
22.01.2009 00:00 0.4 C 97 % 1012.0 hPa 0.0 l/m 2.6 km/h (1 Bft) O-SO 0.00 h 0 W/m 0.0 C 0.4 C 4.1 km/h (1 Bft)
22.01.2009 01:00 0.4 C 98 % 1011.7 hPa 0.0 l/m 1.3 km/h (1 Bft) O-SO 0.00 h 0 W/m 0.1 C 0.4 C 2.8 km/h (1 Bft)
22.01.2009 02:00 0.6 C 98 % 1011.3 hPa 0.0 l/m 0.0 km/h (0 Bft) O-SO 0.00 h 0 W/m 0.3 C 0.6 C 0.3 km/h (0 Bft)
22.01.2009 03:00 0.6 C 98 % 1011.0 hPa 0.0 l/m 0.5 km/h (0 Bft) O-SO 0.00 h 0 W/m 0.4 C 0.6 C 1.4 km/h (1 Bft)
22.01.2009 04:00 0.6 C 99 % 1010.4 hPa 0.0 l/m 0.1 km/h (0 Bft) O-SO 0.00 h 0 W/m 0.4 C 0.6 C 0.7 km/h (0 Bft)
22.01.2009 05:00 0.5 C 99 % 1010.0 hPa 0.0 l/m 0.9 km/h (0 Bft) O-SO 0.00 h 0 W/m 0.3 C 0.5 C 2.1 km/h (1 Bft)
22.01.2009 06:00 0.4 C 99 % 1009.6 hPa 0.0 l/m 1.6 km/h (1 Bft) O-SO 0.00 h 0 W/m 0.2 C 0.3 C 3.0 km/h (1 Bft)
22.01.2009 07:00 0.4 C 99 % 1009.5 hPa 0.0 l/m 0.3 km/h (0 Bft) O-SO 0.00 h 0 W/m 0.3 C 0.4 C 0.8 km/h (0 Bft)
22.01.2009 08:00 0.3 C 99 % 1009.2 hPa 0.0 l/m 0.7 km/h (0 Bft) O-SO 0.00 h 7 W/m 0.2 C 0.3 C 2.0 km/h (1 Bft)
22.01.2009 09:00 0.3 C 99 % 1009.2 hPa 0.0 l/m 0.0 km/h (0 Bft) N 0.00 h 18 W/m 0.2 C 0.3 C 0.2 km/h (0 Bft)
22.01.2009 10:00 0.4 C 99 % 1008.8 hPa 0.0 l/m 2.4 km/h (1 Bft) O-SO 0.00 h 63 W/m 0.3 C 0.0 C 4.2 km/h (1 Bft)
22.01.2009 11:00 1.2 C 94 % 1008.2 hPa 0.0 l/m 2.8 km/h (1 Bft) O-SO 0.32 h 156 W/m 0.4 C 0.8 C 4.8 km/h (1 Bft)
22.01.2009 12:00 2.1 C 81 % 1006.6 hPa 0.0 l/m 4.6 km/h (1 Bft) O-SO 0.43 h 212 W/m -0.8 C 1.1 C 7.7 km/h (2 Bft)
22.01.2009 13:00 2.1 C 79 % 1005.6 hPa 0.0 l/m 1.0 km/h (0 Bft) O 0.00 h 115 W/m -1.2 C 2.0 C 2.7 km/h (1 Bft)
22.01.2009 14:00 2.5 C 77 % 1004.7 hPa 0.0 l/m 0.8 km/h (0 Bft) NO 0.28 h 149 W/m -1.0 C 2.5 C 2.1 km/h (1 Bft)
22.01.2009 15:00 2.8 C 76 % 1004.1 hPa 0.0 l/m 1.5 km/h (1 Bft) O-SO 0.73 h 134 W/m -0.9 C 2.8 C 3.2 km/h (1 Bft)
22.01.2009 16:00 1.8 C 81 % 1003.6 hPa 0.0 l/m 1.0 km/h (0 Bft) O-SO 0.12 h 42 W/m -1.2 C 1.8 C 2.4 km/h (1 Bft)
22.01.2009 17:00 1.0 C 82 % 1003.0 hPa 0.0 l/m 0.7 km/h (0 Bft) O-SO 0.03 h 6 W/m -1.6 C 1.0 C 1.5 km/h (1 Bft)
22.01.2009 18:00 0.3 C 86 % 1002.4 hPa 0.0 l/m 0.0 km/h (0 Bft) O-SO 0.00 h 0 W/m -1.7 C 0.3 C 0.2 km/h (0 Bft)
22.01.2009 19:00 -0.0 C 88 % 1002.3 hPa 0.0 l/m 0.3 km/h (0 Bft) O-SO 0.00 h 0 W/m -1.8 C -0.0 C 0.9 km/h (0 Bft)
22.01.2009 20:00 -0.0 C 90 % 1002.2 hPa 0.0 l/m 0.4 km/h (0 Bft) O-SO 0.00 h 0 W/m -1.4 C -0.0 C 1.2 km/h (1 Bft)
22.01.2009 21:00 0.1 C 91 % 1001.9 hPa 0.0 l/m 0.3 km/h (0 Bft) S-SO 0.00 h 0 W/m -1.1 C 0.1 C 1.0 km/h (0 Bft)
22.01.2009 22:00 0.2 C 92 % 1001.0 hPa 0.0 l/m 0.4 km/h (0 Bft) O-SO 0.00 h 0 W/m -0.9 C 0.2 C 1.0 km/h (0 Bft)
22.01.2009 23:00 0.2 C 93 % 999.7 hPa 0.0 l/m 0.1 km/h (0 Bft) O-SO 0.00 h 0 W/m -0.8 C 0.2 C 0.5 km/h (0 Bft)
23.01.2009 00:00 0.2 C 93 % 998.6 hPa 0.0 l/m 0.1 km/h (0 Bft) O-SO 0.00 h 0 W/m -0.8 C 0.2 C 0.6 km/h (0 Bft)
23.01.2009 01:00 0.0 C 93 % 997.4 hPa 0.0 l/m 0.1 km/h (0 Bft) O-SO 0.00 h 0 W/m -1.0 C 0.0 C 0.7 km/h (0 Bft)
23.01.2009 02:00 -0.2 C 93 % 996.2 hPa 0.0 l/m 1.5 km/h (1 Bft) O-SO 0.00 h 0 W/m -1.2 C -0.5 C 2.4 km/h (1 Bft)
23.01.2009 03:00 -0.5 C 94 % 995.0 hPa 0.0 l/m 0.5 km/h (0 Bft) O-SO 0.00 h 0 W/m -1.4 C -0.6 C 1.2 km/h (1 Bft)
23.01.2009 04:00 -0.8 C 94 % 993.5 hPa 0.0 l/m 0.3 km/h (0 Bft) O-SO 0.00 h 0 W/m -1.6 C -0.8 C 0.8 km/h (0 Bft)
23.01.2009 05:00 -0.7 C 95 % 992.4 hPa 0.0 l/m 0.3 km/h (0 Bft) O-SO 0.00 h 0 W/m -1.4 C -0.7 C 1.0 km/h (0 Bft)
23.01.2009 06:00 -0.4 C 96 % 990.9 hPa 0.2 l/m 0.5 km/h (0 Bft) O-SO 0.00 h 0 W/m -1.0 C -0.4 C 1.2 km/h (1 Bft)
23.01.2009 07:00 -0.1 C 96 % 989.2 hPa 0.2 l/m 0.4 km/h (0 Bft) O-SO 0.00 h 0 W/m -0.7 C -0.1 C 1.1 km/h (1 Bft)
23.01.2009 08:00 0.1 C 97 % 987.5 hPa 1.6 l/m 0.3 km/h (0 Bft) O-SO 0.00 h 6 W/m -0.3 C 0.1 C 1.2 km/h (1 Bft)
23.01.2009 09:00 1.1 C 97 % 985.8 hPa 3.6 l/m 1.8 km/h (1 Bft) NO 0.00 h 7 W/m 0.7 C 1.0 C 4.1 km/h (1 Bft)
23.01.2009 10:00 2.6 C 98 % 984.1 hPa 4.2 l/m 3.8 km/h (1 Bft) O-SO 0.00 h 17 W/m 2.3 C 2.0 C 7.2 km/h (2 Bft)
23.01.2009 11:00 3.9 C 98 % 982.5 hPa 2.2 l/m 5.8 km/h (2 Bft) S-SO 0.00 h 25 W/m 3.6 C 2.7 C 10.6 km/h (2 Bft)
23.01.2009 12:00 5.2 C 97 % 980.2 hPa 0.2 l/m 11.1 km/h (2 Bft) S-SO 0.00 h 39 W/m 4.8 C 2.7 C 19.8 km/h (4 Bft)
23.01.2009 13:00 6.1 C 94 % 977.9 hPa 0.0 l/m 12.5 km/h (3 Bft) S-SW 0.00 h 39 W/m 5.2 C 3.5 C 22.2 km/h (4 Bft)
23.01.2009 14:00 7.9 C 91 % 977.5 hPa 1.8 l/m 18.2 km/h (3 Bft) SW 0.00 h 24 W/m 6.5 C 5.0 C 27.5 km/h (4 Bft)
23.01.2009 15:00 9.2 C 78 % 978.8 hPa 0.2 l/m 24.2 km/h (4 Bft) W 0.00 h 45 W/m 5.6 C 6.0 C 37.4 km/h (5 Bft)
23.01.2009 16:00 9.1 C 71 % 982.1 hPa 0.0 l/m 23.0 km/h (4 Bft) W 0.15 h 25 W/m 4.2 C 6.0 C 33.9 km/h (5 Bft)
23.01.2009 17:00 6.5 C 77 % 985.6 hPa 0.8 l/m 30.5 km/h (5 Bft) W 0.00 h 5 W/m 2.6 C 2.1 C 46.2 km/h (6 Bft)
23.01.2009 18:00 4.2 C 88 % 988.1 hPa 0.2 l/m 18.8 km/h (3 Bft) W 0.00 h 0 W/m 2.4 C 0.2 C 28.1 km/h (4 Bft)
23.01.2009 19:00 5.4 C 77 % 989.7 hPa 0.0 l/m 23.4 km/h (4 Bft) W 0.00 h 0 W/m 1.6 C 1.2 C 35.7 km/h (5 Bft)
23.01.2009 20:00 5.6 C 71 % 990.5 hPa 0.0 l/m 24.3 km/h (4 Bft) W 0.00 h 0 W/m 0.7 C 1.5 C 35.6 km/h (5 Bft)
23.01.2009 21:00 5.2 C 72 % 991.2 hPa 0.0 l/m 16.6 km/h (3 Bft) W 0.00 h 0 W/m 0.5 C 1.9 C 25.5 km/h (4 Bft)
23.01.2009 22:00 4.6 C 74 % 991.4 hPa 0.4 l/m 19.7 km/h (3 Bft) W 0.00 h 0 W/m 0.3 C 0.7 C 29.8 km/h (5 Bft)
23.01.2009 23:00 4.0 C 73 % 991.4 hPa 0.0 l/m 9.6 km/h (2 Bft) SW 0.00 h 0 W/m -0.4 C 1.7 C 14.5 km/h (3 Bft)
24.01.2009 00:00 3.0 C 77 % 991.3 hPa 0.0 l/m 6.7 km/h (2 Bft) SW 0.00 h 0 W/m -0.6 C 1.2 C 10.0 km/h (2 Bft)
24.01.2009 01:00 2.9 C 76 % 990.9 hPa 0.0 l/m 5.2 km/h (1 Bft) W-SW 0.00 h 0 W/m -0.9 C 1.8 C 8.4 km/h (2 Bft)
24.01.2009 02:00 2.8 C 77 % 990.4 hPa 0.0 l/m 4.9 km/h (1 Bft) S-SO 0.00 h 0 W/m -0.9 C 1.8 C 8.0 km/h (2 Bft)
24.01.2009 03:00 1.4 C 84 % 989.3 hPa 0.0 l/m 2.5 km/h (1 Bft) O-SO 0.00 h 0 W/m -1.0 C 1.0 C 4.2 km/h (1 Bft)
24.01.2009 04:00 0.8 C 86 % 988.0 hPa 0.0 l/m 1.2 km/h (1 Bft) O-SO 0.00 h 0 W/m -1.2 C 0.8 C 2.5 km/h (1 Bft)
24.01.2009 05:00 -0.4 C 88 % 987.4 hPa 0.0 l/m 0.5 km/h (0 Bft) O-SO 0.00 h 0 W/m -2.2 C -0.5 C 1.0 km/h (0 Bft)
24.01.2009 06:00 -1.1 C 90 % 987.0 hPa 0.0 l/m 0.0 km/h (0 Bft) N 0.00 h 0 W/m -2.4 C -1.1 C 0.1 km/h (0 Bft)
24.01.2009 07:00 -1.4 C 92 % 987.0 hPa 0.0 l/m 0.0 km/h (0 Bft) N 0.00 h 0 W/m -2.5 C -1.4 C 0.1 km/h (0 Bft)
24.01.2009 08:00 -1.4 C 94 % 986.8 hPa 0.0 l/m 0.0 km/h (0 Bft) N 0.18 h 28 W/m -2.3 C -1.4 C 0.0 km/h (0 Bft)
24.01.2009 09:00 -0.5 C 95 % 986.4 hPa 0.0 l/m 0.1 km/h (0 Bft) O-SO 0.67 h 106 W/m -1.1 C -0.5 C 0.7 km/h (0 Bft)
24.01.2009 10:00 0.8 C 93 % 986.3 hPa 0.0 l/m 0.0 km/h (0 Bft) N 0.05 h 123 W/m -0.2 C 0.8 C 0.1 km/h (0 Bft)
24.01.2009 11:00 2.0 C 86 % 986.4 hPa 0.0 l/m 0.3 km/h (0 Bft) O-SO 0.23 h 155 W/m -0.1 C 2.0 C 0.9 km/h (0 Bft)
24.01.2009 12:00 3.1 C 81 % 986.1 hPa 0.0 l/m 0.6 km/h (0 Bft) O-SO 0.37 h 197 W/m 0.1 C 3.1 C 2.1 km/h (1 Bft)
24.01.2009 13:00 3.9 C 77 % 985.5 hPa 0.0 l/m 3.0 km/h (1 Bft) O-SO 0.27 h 187 W/m 0.3 C 3.4 C 5.2 km/h (1 Bft)
24.01.2009 14:00 4.2 C 75 % 985.7 hPa 0.0 l/m 1.5 km/h (1 Bft) O-SO 0.07 h 134 W/m 0.1 C 4.1 C 3.4 km/h (1 Bft)
24.01.2009 15:00 4.8 C 69 % 986.7 hPa 0.0 l/m 3.1 km/h (1 Bft) N 0.07 h 96 W/m -0.4 C 4.4 C 5.8 km/h (2 Bft)
24.01.2009 16:00 4.6 C 69 % 988.3 hPa 0.0 l/m 2.6 km/h (1 Bft) N 0.00 h 24 W/m -0.6 C 4.4 C 5.6 km/h (1 Bft)
24.01.2009 17:00 4.1 C 68 % 990.3 hPa 0.0 l/m 1.1 km/h (0 Bft) N 0.00 h 6 W/m -1.2 C 4.1 C 2.6 km/h (1 Bft)
24.01.2009 18:00 3.8 C 73 % 991.9 hPa 0.0 l/m 1.7 km/h (1 Bft) N-NW 0.00 h 0 W/m -0.5 C 3.8 C 4.0 km/h (1 Bft)
24.01.2009 19:00 3.5 C 76 % 993.5 hPa 0.0 l/m 0.4 km/h (0 Bft) N-NW 0.00 h 0 W/m -0.3 C 3.5 C 1.3 km/h (1 Bft)
24.01.2009 20:00 2.4 C 80 % 995.2 hPa 0.0 l/m 1.6 km/h (1 Bft) O 0.00 h 0 W/m -0.8 C 2.3 C 2.6 km/h (1 Bft)
24.01.2009 21:00 1.7 C 83 % 996.7 hPa 0.0 l/m 1.5 km/h (1 Bft) O 0.00 h 0 W/m -0.9 C 1.5 C 2.3 km/h (1 Bft)
24.01.2009 22:00 1.2 C 86 % 998.2 hPa 0.0 l/m 0.1 km/h (0 Bft) O 0.00 h 0 W/m -0.8 C 1.2 C 0.7 km/h (0 Bft)
24.01.2009 23:00 1.3 C 89 % 999.6 hPa 0.0 l/m 1.2 km/h (1 Bft) N-NO 0.00 h 0 W/m -0.3 C 1.3 C 2.9 km/h (1 Bft)
25.01.2009 00:00 1.1 C 89 % 1000.5 hPa 0.0 l/m 0.3 km/h (0 Bft) N-NO 0.00 h 0 W/m -0.5 C 1.1 C 1.0 km/h (0 Bft)
25.01.2009 01:00 0.3 C 91 % 1001.4 hPa 0.0 l/m 0.4 km/h (0 Bft) N-NO 0.00 h 0 W/m -1.1 C 0.3 C 1.4 km/h (1 Bft)
25.01.2009 02:00 0.3 C 92 % 1001.9 hPa 0.0 l/m 1.1 km/h (0 Bft) N-NO 0.00 h 0 W/m -0.8 C 0.3 C 2.6 km/h (1 Bft)
25.01.2009 03:00 -0.2 C 92 % 1002.1 hPa 0.0 l/m 1.0 km/h (0 Bft) O 0.00 h 0 W/m -1.3 C -0.3 C 1.5 km/h (1 Bft)
25.01.2009 04:00 -0.6 C 93 % 1002.5 hPa 0.0 l/m 0.6 km/h (0 Bft) O 0.00 h 0 W/m -1.6 C -0.6 C 1.1 km/h (0 Bft)
25.01.2009 05:00 -1.1 C 94 % 1002.5 hPa 0.0 l/m 0.3 km/h (0 Bft) O 0.00 h 0 W/m -1.9 C -1.1 C 0.7 km/h (0 Bft)
25.01.2009 06:00 -1.6 C 94 % 1002.7 hPa 0.0 l/m 1.1 km/h (1 Bft) O 0.00 h 0 W/m -2.3 C -1.6 C 1.9 km/h (1 Bft)
25.01.2009 07:00 -1.9 C 95 % 1002.8 hPa 0.0 l/m 0.3 km/h (0 Bft) O 0.00 h 0 W/m -2.6 C -1.9 C 0.8 km/h (0 Bft)
25.01.2009 08:00 -2.0 C 96 % 1002.8 hPa 0.0 l/m 0.1 km/h (0 Bft) O 0.00 h 21 W/m -2.6 C -2.0 C 0.3 km/h (0 Bft)
25.01.2009 09:00 -1.7 C 96 % 1002.4 hPa 0.0 l/m 0.4 km/h (0 Bft) O 0.37 h 86 W/m -2.3 C -1.7 C 1.2 km/h (1 Bft)
25.01.2009 10:00 -1.4 C 98 % 1001.5 hPa 0.0 l/m 0.9 km/h (0 Bft) O 0.15 h 104 W/m -1.6 C -1.4 C 2.3 km/h (1 Bft)
25.01.2009 11:00 0.8 C 94 % 1000.2 hPa 0.0 l/m 2.2 km/h (1 Bft) O-SO 0.90 h 294 W/m 0.0 C 0.5 C 4.1 km/h (1 Bft)
25.01.2009 12:00 3.0 C 81 % 998.8 hPa 0.0 l/m 2.2 km/h (1 Bft) O-SO 1.00 h 356 W/m 0.1 C 2.6 C 3.9 km/h (1 Bft)
25.01.2009 13:00 3.8 C 79 % 997.8 hPa 0.0 l/m 3.5 km/h (1 Bft) O-SO 1.00 h 335 W/m 0.4 C 3.3 C 6.3 km/h (2 Bft)
25.01.2009 14:00 4.8 C 73 % 997.0 hPa 0.0 l/m 3.0 km/h (1 Bft) O-SO 1.00 h 272 W/m 0.4 C 4.5 C 6.1 km/h (2 Bft)
25.01.2009 15:00 5.0 C 71 % 997.1 hPa 0.0 l/m 2.1 km/h (1 Bft) O-SO 1.00 h 173 W/m 0.2 C 4.9 C 4.5 km/h (1 Bft)
25.01.2009 16:00 5.0 C 68 % 997.0 hPa 0.0 l/m 1.6 km/h (1 Bft) NO 0.55 h 59 W/m -0.5 C 5.0 C 4.3 km/h (1 Bft)
25.01.2009 17:00 2.9 C 74 % 997.1 hPa 0.0 l/m 1.2 km/h (1 Bft) NO 0.07 h 9 W/m -1.3 C 2.9 C 2.3 km/h (1 Bft)
25.01.2009 18:00 1.1 C 83 % 997.5 hPa 0.0 l/m 0.5 km/h (0 Bft) O-NO 0.00 h 0 W/m -1.4 C 1.1 C 1.2 km/h (1 Bft)
25.01.2009 19:00 -0.0 C 87 % 998.0 hPa 0.0 l/m 1.6 km/h (1 Bft) O 0.00 h 0 W/m -2.0 C -0.1 C 2.9 km/h (1 Bft)
25.01.2009 20:00 -0.7 C 89 % 998.1 hPa 0.0 l/m 1.1 km/h (0 Bft) O 0.00 h 0 W/m -2.3 C -0.7 C 2.3 km/h (1 Bft)
25.01.2009 21:00 -1.2 C 90 % 998.2 hPa 0.0 l/m 1.8 km/h (1 Bft) O 0.00 h 0 W/m -2.5 C -1.2 C 2.8 km/h (1 Bft)
25.01.2009 22:00 -1.8 C 92 % 998.6 hPa 0.0 l/m 0.9 km/h (0 Bft) O 0.00 h 0 W/m -2.9 C -1.8 C 2.0 km/h (1 Bft)
25.01.2009 23:00 -2.1 C 93 % 998.6 hPa 0.0 l/m 1.4 km/h (1 Bft) O 0.00 h 0 W/m -3.0 C -2.1 C 2.5 km/h (1 Bft)
Min-Datum _ 25.01.09 23.01.09 23.01.09 - 19.01.09 - - - 25.01.09 23.01.09 19.01.09
_ Min-Zeit 23:23 17:10 14:00 - 00:39 - - - 23:22 02:19 01:17
Minimum _ -2.3 C 63 % 976.8 hPa - 0.0 km/h (0 Bft) - - - -3.3 C -3.2 C 0.0 km/h (0 Bft)
Max-Datum _ 23.01.09 19.01.09 19.01.09 23.01.09 23.01.09 - 20.01.09 22.01.09 23.01.09 23.01.09 23.01.09
_ Max-Zeit 15:26 13:16 00:00 10:00 17:09 - 12:39 12:36 14:35 15:25 17:51
Maximum _ 9.7 C 100 % 1013.4 hPa 4.2 l/m 46.9 km/h
W (6 Bft)
- 0.02 h 443 W/m 7.0 C 7.8 C 74.7 km/h
W (8 Bft)
Durchschnitt _ 2.1 C 90 % 999.3 hPa #29.4 l/m 3.1 km/h (1 Bft) O-SO #11:29 h 83 W/m 0.6 C 1.7 C 5.3 km/h (1 Bft)
© Kaiko 2009